createdAt,value
2018-08-08T00:00:20.997Z,12.83
2018-08-08T00:02:49.820Z,17.83
2018-08-08T00:05:18.333Z,13.53
2018-08-08T00:07:46.745Z,12.93
2018-08-08T00:10:15.048Z,16.03
2018-08-08T00:12:43.840Z,12.73
2018-08-08T00:15:13.194Z,10.43
2018-08-08T00:17:43.267Z,15.90
2018-08-08T00:20:12.040Z,16.83
2018-08-08T00:22:40.439Z,12.63
2018-08-08T00:25:10.968Z,16.10
2018-08-08T00:27:40.060Z,14.93
2018-08-08T00:30:09.713Z,14.73
2018-08-08T00:32:45.494Z,9.27
2018-08-08T00:35:13.933Z,17.93
2018-08-08T00:37:43.981Z,12.47
2018-08-08T00:40:14.609Z,13.10
2018-08-08T00:42:43.828Z,11.90
2018-08-08T00:45:14.785Z,11.00
2018-08-08T00:47:44.697Z,15.30
2018-08-08T00:50:14.844Z,17.87
2018-08-08T00:52:43.906Z,13.23
2018-08-08T00:55:12.526Z,10.20
2018-08-08T00:57:41.136Z,12.73
2018-08-08T01:00:29.345Z,11.20
2018-08-08T01:03:03.593Z,12.33
2018-08-08T01:05:35.133Z,13.00
2018-08-08T01:08:06.668Z,13.40
2018-08-08T01:10:37.486Z,13.60
2018-08-08T01:13:09.201Z,13.70
2018-08-08T01:15:40.433Z,11.83
2018-08-08T01:18:11.588Z,13.73
2018-08-08T01:20:42.544Z,8.73
2018-08-08T01:23:14.083Z,15.10
2018-08-08T01:25:46.025Z,16.50
2018-08-08T01:28:16.688Z,12.67
2018-08-08T01:30:47.945Z,14.30
2018-08-08T01:33:19.264Z,10.23
2018-08-08T01:35:50.290Z,15.93
2018-08-08T01:38:21.004Z,12.07
2018-08-08T01:40:51.499Z,12.67
2018-08-08T01:43:22.158Z,13.17
2018-08-08T01:45:52.033Z,13.33
2018-08-08T01:48:21.857Z,14.60
2018-08-08T01:50:52.887Z,10.77
2018-08-08T01:53:23.803Z,14.43
2018-08-08T01:55:54.344Z,14.53
2018-08-08T01:58:25.357Z,14.37
2018-08-08T02:00:56.956Z,11.23
2018-08-08T02:03:29.386Z,9.70
2018-08-08T02:06:02.765Z,13.90
2018-08-08T02:08:34.226Z,12.93
2018-08-08T02:11:05.261Z,12.23
2018-08-08T02:13:36.645Z,11.23
2018-08-08T02:16:07.703Z,10.03
2018-08-08T02:18:39.120Z,9.73
2018-08-08T02:21:10.093Z,10.17
2018-08-08T02:23:40.510Z,11.07
2018-08-08T02:26:10.934Z,8.53
2018-08-08T02:28:41.736Z,9.60
2018-08-08T02:31:12.135Z,10.57
2018-08-08T02:33:41.975Z,6.07
2018-08-08T02:36:11.432Z,9.47
2018-08-08T02:38:41.656Z,10.10
2018-08-08T02:41:10.248Z,11.20
2018-08-08T02:43:38.628Z,7.17
2018-08-08T02:46:07.081Z,9.33
2018-08-08T02:48:35.417Z,12.57
2018-08-08T02:51:03.713Z,9.47
2018-08-08T02:53:32.587Z,11.83
2018-08-08T02:56:00.873Z,6.57
2018-08-08T02:58:29.153Z,6.73
2018-08-08T03:00:57.445Z,6.10
2018-08-08T03:03:25.854Z,8.37
2018-08-08T03:05:54.105Z,4.90
2018-08-08T03:08:22.424Z,6.50
2018-08-08T03:10:50.673Z,11.13
2018-08-08T03:13:19.108Z,6.90
2018-08-08T03:15:47.441Z,5.90
2018-08-08T03:18:15.718Z,8.10
2018-08-08T03:20:43.980Z,8.63
2018-08-08T03:23:12.218Z,7.53
2018-08-08T03:25:40.522Z,6.40
2018-08-08T03:28:08.768Z,9.90
2018-08-08T03:30:37.077Z,7.53
2018-08-08T03:33:05.336Z,4.60
2018-08-08T03:35:33.767Z,9.93
2018-08-08T03:38:02.084Z,6.47
2018-08-08T03:40:30.388Z,5.37
2018-08-08T03:42:58.639Z,7.07
2018-08-08T03:45:27.104Z,6.87
2018-08-08T03:47:55.382Z,7.57
2018-08-08T03:50:23.671Z,5.27
2018-08-08T03:52:51.930Z,8.27
2018-08-08T03:55:21.254Z,7.63
2018-08-08T03:57:49.610Z,6.90
2018-08-08T04:00:21.809Z,8.80
2018-08-08T04:02:50.446Z,8.67
2018-08-08T04:05:18.846Z,6.43
2018-08-08T04:07:47.450Z,6.63
2018-08-08T04:10:16.548Z,5.60
2018-08-08T04:12:44.888Z,9.53
2018-08-08T04:15:15.529Z,11.17
2018-08-08T04:17:43.874Z,9.73
2018-08-08T04:20:12.219Z,7.07
2018-08-08T04:22:40.549Z,7.40
2018-08-08T04:25:10.490Z,8.00
2018-08-08T04:27:39.304Z,7.70
2018-08-08T04:30:09.579Z,8.27
2018-08-08T04:32:38.298Z,8.83
2018-08-08T04:35:08.137Z,7.60
2018-08-08T04:37:36.655Z,11.03
2018-08-08T04:40:06.726Z,9.10
2018-08-08T04:42:35.184Z,9.63
2018-08-08T04:45:03.570Z,12.10
2018-08-08T04:47:31.861Z,10.97
2018-08-08T04:50:00.617Z,5.30
2018-08-08T04:52:28.853Z,8.63
2018-08-08T04:54:57.329Z,6.87
2018-08-08T04:57:25.579Z,9.50
2018-08-08T04:59:53.944Z,7.07
2018-08-08T05:02:22.188Z,9.83
2018-08-08T05:04:50.618Z,10.93
2018-08-08T05:07:18.864Z,13.37
2018-08-08T05:09:47.179Z,8.30
2018-08-08T05:12:15.482Z,10.03
2018-08-08T05:14:43.919Z,10.53
2018-08-08T05:17:12.217Z,9.17
2018-08-08T05:19:40.484Z,12.73
2018-08-08T05:22:08.748Z,13.03
2018-08-08T05:24:37.192Z,14.10
2018-08-08T05:27:05.655Z,7.93
2018-08-08T05:29:34.040Z,12.33
2018-08-08T05:32:02.389Z,10.73
2018-08-08T05:34:30.736Z,11.20
2018-08-08T05:36:59.007Z,8.77
2018-08-08T05:39:27.274Z,9.40
2018-08-08T05:41:55.571Z,9.67
2018-08-08T05:44:23.974Z,12.17
2018-08-08T05:46:52.247Z,13.67
2018-08-08T05:49:20.537Z,14.07
2018-08-08T05:51:48.804Z,11.07
2018-08-08T05:54:17.172Z,13.30
2018-08-08T05:56:45.500Z,9.00
2018-08-08T05:59:13.784Z,12.50
2018-08-08T06:01:42.080Z,10.43
2018-08-08T06:04:11.093Z,13.73
2018-08-08T06:06:39.368Z,15.67
2018-08-08T06:09:08.862Z,10.47
2018-08-08T06:11:37.175Z,10.17
2018-08-08T06:14:06.457Z,11.90
2018-08-08T06:16:35.116Z,10.78
2018-08-08T06:19:03.410Z,10.10
2018-08-08T06:21:31.824Z,12.83
2018-08-08T06:24:00.606Z,11.40
2018-08-08T06:26:28.919Z,14.77
2018-08-08T06:28:57.203Z,16.77
2018-08-08T06:31:25.429Z,12.27
2018-08-08T06:33:53.786Z,15.20
2018-08-08T06:36:22.024Z,13.07
2018-08-08T06:38:50.277Z,13.73
2018-08-08T06:41:18.515Z,12.77
2018-08-08T06:43:47.164Z,15.40
2018-08-08T06:46:15.419Z,12.33
2018-08-08T06:48:43.867Z,13.77
2018-08-08T06:51:12.226Z,13.17
2018-08-08T06:53:40.639Z,16.00
2018-08-08T06:56:08.974Z,12.73
2018-08-08T06:58:37.293Z,12.93
2018-08-08T07:01:05.617Z,16.87
2018-08-08T07:03:33.946Z,13.87
2018-08-08T07:06:02.220Z,11.83
2018-08-08T07:08:30.521Z,14.37
2018-08-08T07:10:58.774Z,15.67
2018-08-08T07:13:27.255Z,12.53
2018-08-08T07:15:55.526Z,14.00
2018-08-08T07:18:23.826Z,18.50
2018-08-08T07:20:52.165Z,14.90
2018-08-08T07:23:20.445Z,13.03
2018-08-08T07:25:48.929Z,16.70
2018-08-08T07:28:17.214Z,18.53
2018-08-08T07:30:45.520Z,15.77
2018-08-08T07:33:13.806Z,13.37
2018-08-08T07:35:42.090Z,14.40
2018-08-08T07:38:10.379Z,15.83
2018-08-08T07:40:38.687Z,15.63
2018-08-08T07:43:07.865Z,16.47
2018-08-08T07:45:36.273Z,15.53
2018-08-08T07:48:04.771Z,16.67
2018-08-08T07:50:33.107Z,18.97
2018-08-08T07:53:01.353Z,17.37
2018-08-08T07:55:30.132Z,17.67
2018-08-08T07:57:58.432Z,16.93
2018-08-08T08:00:29.049Z,16.43
2018-08-08T08:02:58.137Z,17.00
2018-08-08T08:05:26.544Z,19.80
2018-08-08T08:07:55.363Z,17.13
2018-08-08T08:10:23.629Z,16.87
2018-08-08T08:12:51.931Z,15.17
2018-08-08T08:15:20.226Z,15.83
2018-08-08T08:17:48.551Z,15.50
2018-08-08T08:20:17.930Z,15.73
2018-08-08T08:22:47.128Z,16.77
2018-08-08T08:25:15.817Z,20.97
2018-08-08T08:27:44.111Z,14.60
2018-08-08T08:30:16.001Z,14.77
2018-08-08T08:32:44.865Z,17.37
2018-08-08T08:35:13.270Z,18.67
2018-08-08T08:37:42.098Z,16.80
2018-08-08T08:40:11.309Z,15.67
2018-08-08T08:42:40.050Z,16.20
2018-08-08T08:45:08.404Z,18.73
2018-08-08T08:47:36.729Z,18.00
2018-08-08T08:50:05.847Z,18.37
2018-08-08T08:52:34.180Z,14.33
2018-08-08T08:55:02.539Z,15.93
2018-08-08T08:57:30.808Z,14.63
2018-08-08T08:59:59.170Z,13.90
2018-08-08T09:02:27.527Z,14.03
2018-08-08T09:04:56.002Z,11.20
2018-08-08T09:07:24.387Z,13.93
2018-08-08T09:09:52.667Z,13.30
2018-08-08T09:12:21.147Z,14.37
2018-08-08T09:14:49.511Z,12.83
2018-08-08T09:17:17.829Z,9.80
2018-08-08T09:19:46.116Z,11.63
2018-08-08T09:22:14.413Z,10.40
2018-08-08T09:24:42.872Z,11.53
2018-08-08T09:27:11.183Z,13.53
2018-08-08T09:29:43.663Z,12.30
2018-08-08T09:32:11.927Z,10.07
2018-08-08T09:34:40.390Z,11.90
2018-08-08T09:37:08.631Z,12.63
2018-08-08T09:39:36.908Z,15.77
2018-08-08T09:42:05.295Z,14.37
2018-08-08T09:44:33.886Z,11.80
2018-08-08T09:47:02.235Z,11.60
2018-08-08T09:49:30.559Z,13.80
2018-08-08T09:51:58.785Z,11.83
2018-08-08T09:54:27.191Z,12.50
2018-08-08T09:56:55.455Z,10.90
2018-08-08T09:59:23.746Z,10.67
2018-08-08T10:01:57.269Z,8.33
2018-08-08T10:04:30.957Z,7.77
2018-08-08T10:06:59.306Z,9.97
2018-08-08T10:09:27.550Z,13.80
2018-08-08T10:11:55.815Z,9.23
2018-08-08T10:14:24.115Z,7.97
2018-08-08T10:16:52.790Z,11.33
2018-08-08T10:19:21.460Z,9.77
2018-08-08T10:21:49.929Z,11.07
2018-08-08T10:24:18.411Z,8.77
2018-08-08T10:26:47.109Z,9.40
2018-08-08T10:29:15.390Z,9.50
2018-08-08T10:31:43.760Z,14.67
2018-08-08T10:34:12.362Z,9.20
2018-08-08T10:36:40.613Z,12.13
2018-08-08T10:39:10.860Z,10.60
2018-08-08T10:41:39.138Z,10.17
2018-08-08T10:44:07.870Z,10.17
2018-08-08T10:46:36.134Z,10.37
2018-08-08T10:49:04.480Z,11.83
2018-08-08T10:51:32.934Z,12.67
2018-08-08T10:54:01.381Z,10.27
2018-08-08T10:56:29.602Z,9.13
2018-08-08T10:58:58.049Z,7.63
2018-08-08T11:01:26.631Z,11.53
2018-08-08T11:03:55.107Z,9.57
2018-08-08T11:06:23.446Z,8.63
2018-08-08T11:08:51.787Z,6.40
2018-08-08T11:11:20.085Z,7.23
2018-08-08T11:13:48.422Z,10.30
2018-08-08T11:16:16.761Z,7.07
2018-08-08T11:18:45.044Z,8.07
2018-08-08T11:21:13.420Z,9.53
2018-08-08T11:23:41.754Z,5.70
2018-08-08T11:26:10.046Z,7.07
2018-08-08T11:28:38.358Z,6.30
2018-08-08T11:31:06.895Z,7.33
2018-08-08T11:33:35.242Z,6.27
2018-08-08T11:36:03.530Z,9.47
2018-08-08T11:38:31.745Z,8.03
2018-08-08T11:41:00.039Z,11.13
2018-08-08T11:43:28.332Z,6.10
2018-08-08T11:45:56.597Z,6.27
2018-08-08T11:48:24.884Z,5.37
2018-08-08T11:50:53.138Z,5.30
2018-08-08T11:53:21.432Z,6.70
2018-08-08T11:55:49.746Z,6.30
2018-08-08T11:58:18.018Z,3.83
2018-08-08T12:00:46.309Z,6.27
2018-08-08T12:03:14.571Z,8.23
2018-08-08T12:05:42.876Z,6.53
2018-08-08T12:08:11.170Z,7.73
2018-08-08T12:10:39.411Z,6.00
2018-08-08T12:13:07.699Z,4.63
2018-08-08T12:15:36.157Z,4.97
2018-08-08T12:18:04.722Z,4.23
2018-08-08T12:20:33.009Z,6.13
2018-08-08T12:23:01.266Z,4.37
2018-08-08T12:25:29.825Z,6.37
2018-08-08T12:27:58.172Z,5.27
2018-08-08T12:30:26.490Z,7.00
2018-08-08T12:32:54.764Z,5.87
2018-08-08T12:35:23.173Z,4.27
2018-08-08T12:37:51.461Z,4.30
2018-08-08T12:40:21.751Z,5.03
2018-08-08T12:42:50.104Z,7.03
2018-08-08T12:45:18.522Z,5.50
2018-08-08T12:47:46.825Z,5.13
2018-08-08T12:50:16.021Z,11.73
2018-08-08T12:52:44.327Z,9.90
2018-08-08T12:55:12.693Z,5.77
2018-08-08T12:57:40.975Z,6.70
2018-08-08T13:00:09.288Z,6.67
2018-08-08T13:02:37.628Z,4.80
2018-08-08T13:05:07.630Z,5.97
2018-08-08T13:07:36.133Z,4.53
2018-08-08T13:10:04.754Z,7.10
2018-08-08T13:12:33.091Z,8.50
2018-08-08T13:15:01.531Z,5.37
2018-08-08T13:17:29.808Z,4.33
2018-08-08T13:19:58.108Z,5.03
2018-08-08T13:22:26.392Z,5.37
2018-08-08T13:24:54.862Z,4.70
2018-08-08T13:27:23.133Z,3.23
2018-08-08T13:29:51.458Z,6.80
2018-08-08T13:32:19.807Z,6.73
2018-08-08T13:34:48.133Z,5.13
2018-08-08T13:37:16.521Z,5.23
2018-08-08T13:39:45.587Z,5.47
2018-08-08T13:42:13.900Z,5.10
2018-08-08T13:44:42.195Z,6.10
2018-08-08T13:47:10.542Z,7.97
2018-08-08T13:49:38.805Z,5.43
2018-08-08T13:52:07.636Z,5.07
2018-08-08T13:54:36.030Z,7.10
2018-08-08T13:57:04.607Z,7.47
2018-08-08T13:59:32.904Z,7.23
2018-08-08T14:02:01.201Z,4.57
2018-08-08T14:04:29.709Z,7.33
2018-08-08T14:06:58.053Z,5.03
2018-08-08T14:09:26.380Z,6.63
2018-08-08T14:11:54.700Z,8.10
2018-08-08T14:14:23.278Z,4.67
2018-08-08T14:16:51.558Z,5.83
2018-08-08T14:19:19.907Z,5.47
2018-08-08T14:21:48.304Z,4.90
2018-08-08T14:24:16.643Z,4.60
2018-08-08T14:26:44.906Z,3.37
2018-08-08T14:29:13.165Z,6.10
2018-08-08T14:31:41.577Z,4.43
2018-08-08T14:34:09.951Z,3.70
2018-08-08T14:36:38.217Z,6.00
2018-08-08T14:39:09.121Z,4.50
2018-08-08T14:41:37.919Z,6.57
2018-08-08T14:44:06.265Z,6.03
2018-08-08T14:46:34.623Z,5.63
2018-08-08T14:49:02.921Z,5.60
2018-08-08T14:51:31.233Z,7.97
2018-08-08T14:53:59.715Z,7.07
2018-08-08T14:56:27.986Z,7.25
2018-08-08T14:58:56.312Z,7.47
2018-08-08T15:01:24.882Z,8.03
2018-08-08T15:03:53.402Z,5.93
2018-08-08T15:06:21.703Z,5.97
2018-08-08T15:08:49.996Z,5.00
2018-08-08T15:11:18.323Z,6.00
2018-08-08T15:13:47.787Z,6.53
2018-08-08T15:16:16.061Z,8.20
2018-08-08T15:18:44.370Z,4.90
2018-08-08T15:21:12.628Z,4.10
2018-08-08T15:25:10.814Z,5.47
2018-08-08T15:27:39.409Z,6.90
2018-08-08T15:30:09.534Z,6.83
2018-08-08T15:32:37.855Z,4.67
2018-08-08T15:35:06.265Z,5.53
2018-08-08T15:37:34.893Z,3.43
2018-08-08T15:40:02.944Z,4.57
2018-08-08T15:42:31.228Z,6.30
2018-08-08T15:44:59.608Z,4.40
2018-08-08T15:47:27.875Z,5.53
2018-08-08T15:49:56.214Z,4.17
2018-08-08T15:52:24.523Z,4.70
2018-08-08T15:54:52.894Z,3.90
2018-08-08T15:57:21.291Z,4.40
2018-08-08T15:59:56.174Z,5.03
2018-08-08T16:02:24.511Z,5.03
2018-08-08T16:04:52.973Z,5.10
2018-08-08T16:07:21.264Z,5.30
2018-08-08T16:09:49.503Z,6.00
2018-08-08T16:12:17.820Z,4.50
2018-08-08T16:14:46.329Z,6.33
2018-08-08T16:17:14.599Z,5.93
2018-08-08T16:19:42.943Z,5.73
2018-08-08T16:22:11.217Z,6.47
2018-08-08T16:24:39.666Z,6.57
2018-08-08T16:27:07.958Z,4.77
2018-08-08T16:29:36.288Z,4.27
2018-08-08T16:32:04.581Z,4.60
2018-08-08T16:34:33.562Z,5.13
2018-08-08T16:37:01.841Z,3.83
2018-08-08T16:39:30.199Z,5.67
2018-08-08T16:41:58.437Z,5.43
2018-08-08T16:44:26.712Z,4.63
2018-08-08T16:46:55.001Z,3.50
2018-08-08T16:49:23.357Z,6.03
2018-08-08T16:51:51.657Z,5.97
2018-08-08T16:54:20.854Z,5.17
2018-08-08T16:56:49.129Z,4.37
2018-08-08T16:59:17.396Z,6.03
2018-08-08T17:01:45.651Z,3.87
2018-08-08T17:04:13.979Z,5.17
2018-08-08T17:06:42.285Z,3.97
2018-08-08T17:09:11.420Z,10.33
2018-08-08T17:11:39.687Z,3.50
2018-08-08T17:14:09.104Z,2.93
2018-08-08T17:16:37.958Z,3.23
2018-08-08T17:19:06.358Z,5.30
2018-08-08T17:21:34.644Z,4.73
2018-08-08T17:25:07.378Z,2.53
2018-08-08T17:27:35.714Z,3.80
2018-08-08T17:30:05.052Z,3.27
2018-08-08T17:32:33.324Z,6.30
2018-08-08T17:35:01.898Z,2.87
2018-08-08T17:37:30.180Z,3.20
2018-08-08T17:39:58.507Z,4.50
2018-08-08T17:42:26.791Z,3.80
2018-08-08T17:44:55.198Z,2.10
2018-08-08T17:47:23.473Z,2.13
2018-08-08T17:49:51.862Z,3.33
2018-08-08T17:52:20.134Z,1.80
2018-08-08T17:54:48.490Z,20.00
2018-08-08T17:57:16.746Z,2.17
2018-08-08T17:59:45.079Z,4.03
2018-08-08T18:02:13.369Z,2.83
2018-08-08T18:04:41.890Z,4.27
2018-08-08T18:07:10.212Z,3.70
2018-08-08T18:09:38.479Z,3.10
2018-08-08T18:12:07.218Z,2.23
2018-08-08T18:14:35.499Z,2.63
2018-08-08T18:17:03.775Z,3.37
2018-08-08T18:19:32.058Z,3.30
2018-08-08T18:22:00.366Z,2.17
2018-08-08T18:24:28.824Z,2.17
2018-08-08T18:26:57.126Z,2.57
2018-08-08T18:29:25.362Z,2.60
2018-08-08T18:31:53.793Z,3.37
2018-08-08T18:34:21.885Z,1.90
2018-08-08T18:36:50.154Z,2.00
2018-08-08T18:39:18.424Z,3.13
2018-08-08T18:41:46.697Z,2.87
2018-08-08T18:44:15.511Z,4.20
2018-08-08T18:46:43.788Z,4.10
2018-08-08T18:49:12.113Z,4.53
2018-08-08T18:51:40.494Z,3.53
2018-08-08T18:54:09.395Z,4.10
2018-08-08T18:56:37.669Z,4.43
2018-08-08T18:59:05.968Z,4.53
2018-08-08T19:01:34.318Z,1.70
2018-08-08T19:04:02.673Z,1.60
2018-08-08T19:06:30.990Z,1.70
2018-08-08T19:08:59.264Z,2.90
2018-08-08T19:11:27.509Z,4.40
2018-08-08T19:13:56.045Z,3.37
2018-08-08T19:16:24.381Z,4.20
2018-08-08T19:18:59.377Z,6.03
2018-08-08T19:21:27.768Z,3.60
2018-08-08T19:23:56.200Z,4.60
2018-08-08T19:26:24.500Z,6.43
2018-08-08T19:28:52.755Z,2.97
2018-08-08T19:31:21.060Z,3.33
2018-08-08T19:33:49.434Z,2.37
2018-08-08T19:36:17.712Z,2.83
2018-08-08T19:38:45.974Z,3.73
2018-08-08T19:41:14.264Z,5.43
2018-08-08T19:43:42.671Z,4.50
2018-08-08T19:46:10.999Z,3.20
2018-08-08T19:48:39.272Z,2.07
2018-08-08T19:51:07.563Z,5.50
2018-08-08T19:53:35.922Z,3.47
2018-08-08T19:56:04.173Z,3.50
2018-08-08T19:58:32.446Z,2.97
2018-08-08T20:01:00.665Z,5.20
2018-08-08T20:03:29.040Z,4.07
2018-08-08T20:05:57.421Z,4.43
2018-08-08T20:08:26.454Z,3.70
2018-08-08T20:10:55.835Z,2.42
2018-08-08T20:13:24.316Z,2.60
2018-08-08T20:15:54.753Z,5.30
2018-08-08T20:18:23.656Z,4.73
2018-08-08T20:20:52.227Z,3.17
2018-08-08T20:23:20.763Z,4.60
2018-08-08T20:25:49.040Z,3.13
2018-08-08T20:28:17.665Z,4.90
2018-08-08T20:30:46.651Z,6.03
2018-08-08T20:33:14.957Z,7.93
2018-08-08T20:35:43.212Z,3.20
2018-08-08T20:38:11.449Z,6.27
2018-08-08T20:40:39.712Z,2.87
2018-08-08T20:43:07.969Z,3.33
2018-08-08T20:45:36.201Z,4.63
2018-08-08T20:48:04.837Z,2.97
2018-08-08T20:50:33.121Z,3.37
2018-08-08T20:53:01.377Z,5.10
2018-08-08T20:55:30.953Z,3.12
2018-08-08T20:57:59.216Z,4.47
2018-08-08T21:00:27.499Z,3.37
2018-08-08T21:02:55.778Z,7.50
2018-08-08T21:05:24.095Z,3.93
2018-08-08T21:07:52.294Z,2.10
2018-08-08T21:10:20.569Z,5.93
2018-08-08T21:12:48.805Z,3.50
2018-08-08T21:15:18.279Z,5.13
2018-08-08T21:17:46.633Z,4.30
2018-08-08T21:20:14.874Z,2.47
2018-08-08T21:22:43.122Z,4.50
2018-08-08T21:25:11.409Z,4.17
2018-08-08T21:27:39.599Z,3.00
2018-08-08T21:30:08.250Z,3.90
2018-08-08T21:32:36.542Z,2.67
2018-08-08T21:35:04.875Z,3.70
2018-08-08T21:37:33.107Z,5.00
2018-08-08T21:40:01.401Z,2.97
2018-08-08T21:42:29.650Z,4.80
2018-08-08T21:44:58.968Z,4.17
2018-08-08T21:47:27.229Z,3.37
2018-08-08T21:49:55.737Z,2.60
2018-08-08T21:52:24.034Z,3.20
2018-08-08T21:55:03.616Z,3.83
2018-08-08T21:57:43.366Z,3.53
2018-08-08T22:00:23.154Z,2.97
2018-08-08T22:03:02.312Z,4.70
2018-08-08T22:05:42.365Z,3.43
2018-08-08T22:08:22.088Z,3.60
2018-08-08T22:11:12.539Z,2.83
2018-08-08T22:13:52.315Z,3.07
2018-08-08T22:16:31.925Z,3.87
2018-08-08T22:19:18.887Z,3.50
2018-08-08T22:21:47.176Z,4.03
2018-08-08T22:24:15.608Z,5.70
2018-08-08T22:26:43.891Z,4.00
2018-08-08T22:29:12.375Z,3.93
2018-08-08T22:31:41.083Z,3.33
2018-08-08T22:34:09.563Z,4.07
2018-08-08T22:36:38.118Z,3.97
2018-08-08T22:39:09.964Z,3.00
2018-08-08T22:41:38.231Z,5.27
2018-08-08T22:44:06.755Z,3.00
2018-08-08T22:46:34.995Z,6.63
2018-08-08T22:49:03.540Z,3.23
2018-08-08T22:51:31.838Z,4.27
2018-08-08T22:54:00.276Z,8.00
2018-08-08T22:56:29.572Z,3.73
2018-08-08T22:58:58.340Z,4.90
2018-08-08T23:01:26.662Z,5.20
2018-08-08T23:03:56.979Z,3.40
2018-08-08T23:06:26.122Z,4.50
2018-08-08T23:08:54.308Z,4.10
2018-08-08T23:11:22.590Z,5.70
2018-08-08T23:13:50.891Z,4.43
2018-08-08T23:16:19.150Z,5.73
2018-08-08T23:18:47.443Z,4.60
2018-08-08T23:21:15.708Z,3.67
2018-08-08T23:23:44.282Z,4.33
2018-08-08T23:26:12.462Z,5.93
2018-08-08T23:28:40.719Z,5.03
2018-08-08T23:31:08.943Z,4.97
2018-08-08T23:33:37.359Z,4.00
2018-08-08T23:36:05.778Z,5.07
2018-08-08T23:38:34.063Z,6.23
2018-08-08T23:41:02.314Z,4.77
2018-08-08T23:43:30.678Z,5.00
2018-08-08T23:45:58.965Z,5.33
2018-08-08T23:48:27.250Z,4.13
2018-08-08T23:50:55.493Z,5.40
2018-08-08T23:53:23.784Z,4.03
2018-08-08T23:55:52.006Z,4.47
2018-08-08T23:58:20.278Z,4.77
